Ann Arbor Township, Michigan
Current Conditions -  °F | °C
As of 11:53 AM on Friday 24 Oct 2014 (Local Time) from KARB Reporting Station
Overcast Overcast  
Wind Chill: 56°   Ceiling: 6000
Heat Index: 56°   Visibility: 10mi
Dew Point: 42°   Wind: 5mph
Humidity: 60%   Direction: 230°SW
Pressure: 30.06"   Gusts: NA
Location:  42.3281°N, 83.7037°W
Report Text: KARB 241553Z 23004KT 10SM FEW041 OVC060 13/06 A3006 RMK AO2 SLP182 T01330056
Loading
Personal Weather Stations






























Interactive Weather Map
Tropical Storm Tracking
New forecast layout! Learn more

10-Day Weather Forecast

Advertisements
Track Severe Weather on mobile